Time,TemperatureF,DewpointF,PressureIn,WindDirection,WindDirectionDegrees,WindSpeedMPH,WindSpeedGustMPH,Humidity,HourlyPrecipIn,Conditions,Clouds,dailyrainin,SoftwareType,DateUTC
2013-03-12 00:00:00,33.4,21.4,30.16,East,91,1.0,5.0,61,0.00,,CLR,0.00,VWS V14.01,2013-03-12 06:00:00,
2013-03-12 00:04:00,33.4,21.4,30.16,East,98,3.0,3.0,61,0.00,,CLR,0.00,VWS V14.01,2013-03-12 06:04:00,
2013-03-12 00:09:00,33.7,21.7,30.16,ESE,123,4.0,4.0,61,0.00,,CLR,0.00,VWS V14.01,2013-03-12 06:09:00,
2013-03-12 00:14:00,33.2,21.6,30.16,ESE,108,2.0,4.0,62,0.00,,CLR,0.00,VWS V14.01,2013-03-12 06:14:00,
2013-03-12 00:19:00,32.7,21.5,30.16,SE,125,4.0,4.0,63,0.00,,CLR,0.00,VWS V14.01,2013-03-12 06:19:00,
2013-03-12 00:24:00,32.4,21.6,30.16,ESE,108,4.0,5.0,64,0.00,,CLR,0.00,VWS V14.01,2013-03-12 06:24:00,
2013-03-12 00:29:00,32.1,21.3,30.16,SE,129,3.0,3.0,64,0.00,,CLR,0.00,VWS V14.01,2013-03-12 06:29:00,
2013-03-12 00:30:00,32.1,21.3,30.16,SE,127,3.0,5.0,64,0.00,,CLR,0.00,VWS V14.01,2013-03-12 06:30:00,
2013-03-12 00:34:00,31.9,21.5,30.16,ESE,112,2.0,3.0,65,0.00,,CLR,0.00,VWS V14.01,2013-03-12 06:34:00,
2013-03-12 00:39:00,31.9,21.5,30.16,SE,133,3.0,4.0,65,0.00,,CLR,0.00,VWS V14.01,2013-03-12 06:39:00,
2013-03-12 00:44:00,31.7,21.7,30.16,ESE,121,4.0,4.0,66,0.00,,CLR,0.00,VWS V14.01,2013-03-12 06:44:00,
2013-03-12 00:49:00,31.7,21.7,30.16,ESE,113,1.0,5.0,66,0.00,,CLR,0.00,VWS V14.01,2013-03-12 06:49:00,
2013-03-12 00:55:00,31.7,21.7,30.16,SE,132,3.0,5.0,66,0.00,,CLR,0.00,VWS V14.01,2013-03-12 06:55:00,
2013-03-12 01:00:00,31.6,21.6,30.16,ESE,115,3.0,4.0,66,0.00,,CLR,0.00,VWS V14.01,2013-03-12 07:00:00,
2013-03-12 01:05:00,31.4,21.4,30.16,SE,129,1.0,4.0,66,0.00,,CLR,0.00,VWS V14.01,2013-03-12 07:05:00,
2013-03-12 01:10:00,31.5,21.5,30.16,SE,133,2.0,4.0,66,0.00,,CLR,0.00,VWS V14.01,2013-03-12 07:10:00,
2013-03-12 01:15:00,31.2,21.5,30.15,SE,139,3.0,4.0,67,0.00,,CLR,0.00,VWS V14.01,2013-03-12 07:15:00,
2013-03-12 01:20:00,31.2,21.5,30.16,SE,145,3.0,4.0,67,0.00,,CLR,0.00,VWS V14.01,2013-03-12 07:20:00,
2013-03-12 01:25:00,31.2,21.5,30.15,ESE,123,3.0,4.0,67,0.00,,CLR,0.00,VWS V14.01,2013-03-12 07:25:00,
2013-03-12 01:30:00,31.3,21.6,30.15,SSE,153,1.0,3.0,67,0.00,,CLR,0.00,VWS V14.01,2013-03-12 07:30:00,
2013-03-12 01:35:00,31.4,21.7,30.15,SE,143,0.0,3.0,67,0.00,,CLR,0.00,VWS V14.01,2013-03-12 07:35:00,
2013-03-12 01:40:00,31.4,21.7,30.15,SE,141,1.0,3.0,67,0.00,,CLR,0.00,VWS V14.01,2013-03-12 07:40:00,
2013-03-12 01:45:00,31.5,21.5,30.15,ESE,120,0.0,3.0,66,0.00,,CLR,0.00,VWS V14.01,2013-03-12 07:45:00,
2013-03-12 01:50:00,31.1,21.4,30.15,ESE,116,1.0,3.0,67,0.00,,CLR,0.00,VWS V14.01,2013-03-12 07:50:00,
2013-03-12 01:55:00,31.0,21.3,30.15,ESE,113,2.0,3.0,67,0.00,,CLR,0.00,VWS V14.01,2013-03-12 07:55:00,
2013-03-12 02:00:00,30.6,21.3,30.15,SE,142,0.0,3.0,68,0.00,,CLR,0.00,VWS V14.01,2013-03-12 08:00:00,
2013-03-12 02:01:00,30.4,21.5,30.15,SE,142,0.0,0.0,69,0.00,,CLR,0.00,VWS V14.01,2013-03-12 08:01:00,
2013-03-12 02:06:00,29.7,21.1,30.15,NE,56,0.0,3.0,70,0.00,,CLR,0.00,VWS V14.01,2013-03-12 08:06:00,
2013-03-12 02:11:00,29.1,21.5,30.15,ENE,57,0.0,3.0,73,0.00,,CLR,0.00,VWS V14.01,2013-03-12 08:11:00,
2013-03-12 02:17:00,28.8,21.6,30.15,ESE,113,1.0,3.0,74,0.00,,CLR,0.00,VWS V14.01,2013-03-12 08:17:00,
2013-03-12 02:22:00,28.9,21.7,30.15,ESE,114,0.0,3.0,74,0.00,,CLR,0.00,VWS V14.01,2013-03-12 08:22:00,
2013-03-12 02:27:00,29.0,21.4,30.14,ESE,115,0.0,3.0,73,0.00,,CLR,0.00,VWS V14.01,2013-03-12 08:27:00,
2013-03-12 02:30:00,29.2,21.6,30.14,ESE,110,1.0,3.0,73,0.00,,CLR,0.00,VWS V14.01,2013-03-12 08:30:00,
2013-03-12 02:32:00,29.5,21.6,30.14,East,92,0.0,2.0,72,0.00,,CLR,0.00,VWS V14.01,2013-03-12 08:32:00,
2013-03-12 02:37:00,29.2,21.0,30.15,East,93,0.0,2.0,71,0.00,,CLR,0.00,VWS V14.01,2013-03-12 08:37:00,
2013-03-12 02:43:00,28.6,21.1,30.14,SE,134,0.0,2.0,73,0.00,,CLR,0.00,VWS V14.01,2013-03-12 08:43:00,
2013-03-12 02:48:00,29.0,21.4,30.14,ESE,122,2.0,3.0,73,0.00,,CLR,0.00,VWS V14.01,2013-03-12 08:48:00,
2013-03-12 02:53:00,29.0,21.1,30.14,SSW,208,2.0,4.0,72,0.00,,CLR,0.00,VWS V14.01,2013-03-12 08:53:00,
2013-03-12 02:58:00,28.2,21.0,30.14,SSE,155,2.0,4.0,74,0.00,,CLR,0.00,VWS V14.01,2013-03-12 08:58:00,
2013-03-12 03:00:00,28.2,21.0,30.14,SW,225,2.0,4.0,74,0.00,,CLR,0.00,VWS V14.01,2013-03-12 09:00:00,
2013-03-12 03:03:00,28.4,21.2,30.14,SE,139,0.0,3.0,74,0.00,,CLR,0.00,VWS V14.01,2013-03-12 09:03:00,
2013-03-12 03:08:00,28.9,21.4,30.14,SSW,201,1.0,3.0,73,0.00,,CLR,0.00,VWS V14.01,2013-03-12 09:08:00,
2013-03-12 03:13:00,29.5,21.3,30.13,SSW,197,3.0,3.0,71,0.00,,CLR,0.00,VWS V14.01,2013-03-12 09:13:00,
2013-03-12 03:18:00,29.8,21.2,30.14,South,176,4.0,5.0,70,0.00,,CLR,0.00,VWS V14.01,2013-03-12 09:18:00,
2013-03-12 03:23:00,30.2,21.3,30.13,South,172,3.0,5.0,69,0.00,,CLR,0.00,VWS V14.01,2013-03-12 09:23:00,
2013-03-12 03:28:00,30.5,21.2,30.13,SSE,147,6.0,6.0,68,0.00,,CLR,0.00,VWS V14.01,2013-03-12 09:28:00,
2013-03-12 03:30:00,30.6,21.3,30.13,SSE,159,2.0,6.0,68,0.00,,CLR,0.00,VWS V14.01,2013-03-12 09:30:00,
2013-03-12 03:34:00,30.9,21.6,30.13,South,169,3.0,5.0,68,0.00,,CLR,0.00,VWS V14.01,2013-03-12 09:34:00,
2013-03-12 03:39:00,31.3,21.6,30.13,SSE,147,5.0,8.0,67,0.00,,CLR,0.00,VWS V14.01,2013-03-12 09:39:00,
2013-03-12 03:44:00,31.5,21.5,30.13,SE,140,1.0,8.0,66,0.00,,CLR,0.00,VWS V14.01,2013-03-12 09:44:00,
2013-03-12 03:49:00,30.6,21.0,30.14,NE,43,0.0,8.0,67,0.00,,CLR,0.00,VWS V14.01,2013-03-12 09:49:00,
2013-03-12 03:54:00,29.4,20.8,30.14,NE,39,0.0,8.0,70,0.00,,CLR,0.00,VWS V14.01,2013-03-12 09:54:00,
2013-03-12 03:59:00,29.2,21.0,30.14,NE,40,0.0,8.0,71,0.00,,CLR,0.00,VWS V14.01,2013-03-12 09:59:00,
2013-03-12 04:00:00,29.2,21.0,30.14,NE,40,0.0,8.0,71,0.00,,CLR,0.00,VWS V14.01,2013-03-12 10:00:00,
2013-03-12 04:04:00,29.7,21.5,30.14,SE,143,5.0,6.0,71,0.00,,CLR,0.00,VWS V14.01,2013-03-12 10:04:00,
2013-03-12 04:09:00,31.0,21.3,30.14,SSE,148,3.0,8.0,67,0.00,,CLR,0.00,VWS V14.01,2013-03-12 10:09:00,
2013-03-12 04:14:00,31.4,21.4,30.14,WSW,252,0.0,8.0,66,0.00,,CLR,0.00,VWS V14.01,2013-03-12 10:14:00,
2013-03-12 04:19:00,31.4,21.4,30.14,SE,129,3.0,8.0,66,0.00,,CLR,0.00,VWS V14.01,2013-03-12 10:19:00,
2013-03-12 04:24:00,31.8,21.4,30.14,SSE,148,2.0,8.0,65,0.00,,CLR,0.00,VWS V14.01,2013-03-12 10:24:00,
2013-03-12 04:30:00,32.1,21.3,30.14,SSE,158,2.0,2.0,64,0.00,,CLR,0.00,VWS V14.01,2013-03-12 10:30:00,
2013-03-12 04:35:00,31.9,21.1,30.14,SE,127,0.0,2.0,64,0.00,,CLR,0.00,VWS V14.01,2013-03-12 10:35:00,
2013-03-12 04:40:00,30.6,21.0,30.15,North,9,0.0,2.0,67,0.00,,CLR,0.00,VWS V14.01,2013-03-12 10:40:00,
2013-03-12 04:45:00,29.2,20.6,30.15,NE,51,0.0,2.0,70,0.00,,CLR,0.00,VWS V14.01,2013-03-12 10:45:00,
2013-03-12 04:50:00,28.3,20.4,30.15,NE,51,0.0,2.0,72,0.00,,CLR,0.00,VWS V14.01,2013-03-12 10:50:00,
2013-03-12 04:55:00,27.5,20.3,30.15,ESE,118,0.0,2.0,74,0.00,,CLR,0.00,VWS V14.01,2013-03-12 10:55:00,
2013-03-12 05:00:00,27.5,20.6,30.16,SE,133,0.0,0.0,75,0.00,,CLR,0.00,VWS V14.01,2013-03-12 11:00:00,
2013-03-12 05:06:00,27.7,20.8,30.16,East,90,0.0,3.0,75,0.00,,CLR,0.00,VWS V14.01,2013-03-12 11:06:00,
2013-03-12 05:11:00,28.2,21.0,30.16,East,91,1.0,3.0,74,0.00,,CLR,0.00,VWS V14.01,2013-03-12 11:11:00,
2013-03-12 05:17:00,28.5,21.0,30.16,East,91,1.0,3.0,73,0.00,,CLR,0.00,VWS V14.01,2013-03-12 11:17:00,
2013-03-12 05:22:00,28.6,20.7,30.17,ENE,65,0.0,3.0,72,0.00,,CLR,0.00,VWS V14.01,2013-03-12 11:22:00,
2013-03-12 05:27:00,28.3,20.4,30.17,East,95,0.0,3.0,72,0.00,,CLR,0.00,VWS V14.01,2013-03-12 11:27:00,
2013-03-12 05:30:00,28.6,20.7,30.17,East,95,0.0,3.0,72,0.00,,CLR,0.00,VWS V14.01,2013-03-12 11:30:00,
2013-03-12 05:32:00,28.8,20.6,30.17,East,94,0.0,0.0,71,0.00,,CLR,0.00,VWS V14.01,2013-03-12 11:32:00,
2013-03-12 05:37:00,28.6,20.4,30.17,East,94,1.0,1.0,71,0.00,,CLR,0.00,VWS V14.01,2013-03-12 11:37:00,
2013-03-12 05:42:00,28.4,20.2,30.17,South,173,1.0,1.0,71,0.00,,CLR,0.00,VWS V14.01,2013-03-12 11:42:00,
2013-03-12 05:47:00,28.0,20.2,30.17,South,191,1.0,2.0,72,0.00,,CLR,0.00,VWS V14.01,2013-03-12 11:47:00,
2013-03-12 05:52:00,27.5,20.0,30.18,SSW,207,1.0,2.0,73,0.00,,CLR,0.00,VWS V14.01,2013-03-12 11:52:00,
2013-03-12 05:58:00,27.6,20.4,30.17,SE,128,1.0,2.0,74,0.00,,CLR,0.00,VWS V14.01,2013-03-12 11:58:00,
2013-03-12 06:00:00,27.7,20.2,30.18,SE,130,3.0,3.0,73,0.00,,CLR,0.00,VWS V14.01,2013-03-12 12:00:00,
2013-03-12 06:03:00,27.7,20.2,30.18,SE,134,2.0,3.0,73,0.00,,CLR,0.00,VWS V14.01,2013-03-12 12:03:00,
2013-03-12 06:08:00,27.5,20.3,30.18,ESE,122,2.0,3.0,74,0.00,,CLR,0.00,VWS V14.01,2013-03-12 12:08:00,
2013-03-12 06:13:00,27.8,20.3,30.18,ESE,114,0.0,3.0,73,0.00,,CLR,0.00,VWS V14.01,2013-03-12 12:13:00,
2013-03-12 06:18:00,27.9,20.4,30.18,SE,133,2.0,3.0,73,0.00,,CLR,0.00,VWS V14.01,2013-03-12 12:18:00,
2013-03-12 06:23:00,28.2,20.4,30.18,SE,124,0.0,3.0,72,0.00,,CLR,0.00,VWS V14.01,2013-03-12 12:23:00,
2013-03-12 06:28:00,28.1,20.2,30.19,SE,124,0.0,3.0,72,0.00,,CLR,0.00,VWS V14.01,2013-03-12 12:28:00,
2013-03-12 06:30:00,28.1,20.2,30.19,ESE,117,1.0,3.0,72,0.00,,CLR,0.00,VWS V14.01,2013-03-12 12:30:00,
2013-03-12 06:33:00,28.3,20.1,30.19,ESE,122,0.0,2.0,71,0.00,,CLR,0.00,VWS V14.01,2013-03-12 12:33:00,
2013-03-12 06:38:00,28.4,20.2,30.19,NNE,12,1.0,2.0,71,0.00,,CLR,0.00,VWS V14.01,2013-03-12 12:38:00,
2013-03-12 06:43:00,28.3,20.1,30.19,NNE,13,1.0,2.0,71,0.00,,CLR,0.00,VWS V14.01,2013-03-12 12:43:00,
2013-03-12 06:48:00,28.1,19.9,30.20,NNE,13,0.0,2.0,71,0.00,,CLR,0.00,VWS V14.01,2013-03-12 12:48:00,
2013-03-12 06:53:00,27.6,19.8,30.20,NE,56,0.0,2.0,72,0.00,,CLR,0.00,VWS V14.01,2013-03-12 12:53:00,
2013-03-12 06:58:00,27.1,19.9,30.20,South,181,2.0,3.0,74,0.00,,CLR,0.00,VWS V14.01,2013-03-12 12:58:00,
2013-03-12 07:00:00,27.0,19.8,30.20,SSW,195,1.0,3.0,74,0.00,,CLR,0.00,VWS V14.01,2013-03-12 13:00:00,
2013-03-12 07:03:00,26.9,20.0,30.20,SSW,193,0.0,1.0,75,0.00,,CLR,0.00,VWS V14.01,2013-03-12 13:03:00,
2013-03-12 07:08:00,27.0,20.1,30.20,ESE,115,0.0,1.0,75,0.00,,CLR,0.00,VWS V14.01,2013-03-12 13:08:00,
2013-03-12 07:13:00,27.2,20.0,30.20,ESE,116,0.0,1.0,74,0.00,,CLR,0.00,VWS V14.01,2013-03-12 13:13:00,
2013-03-12 07:18:00,28.0,20.5,30.20,WNW,284,1.0,3.0,73,0.00,,CLR,0.00,VWS V14.01,2013-03-12 13:18:00,
2013-03-12 07:23:00,27.7,19.9,30.20,WNW,285,0.0,3.0,72,0.00,,CLR,0.00,VWS V14.01,2013-03-12 13:23:00,
2013-03-12 07:29:00,27.6,20.1,30.20,ESE,120,0.0,3.0,73,0.00,,CLR,0.00,VWS V14.01,2013-03-12 13:29:00,
2013-03-12 07:30:00,27.5,20.0,30.20,ESE,120,0.0,3.0,73,0.00,,CLR,0.00,VWS V14.01,2013-03-12 13:30:00,
2013-03-12 07:34:00,27.7,20.2,30.20,North,8,0.0,1.0,73,0.00,,CLR,0.00,VWS V14.01,2013-03-12 13:34:00,
2013-03-12 07:39:00,27.5,19.7,30.21,North,9,0.0,1.0,72,0.00,,CLR,0.00,VWS V14.01,2013-03-12 13:39:00,
2013-03-12 07:44:00,27.6,19.8,30.21,NNW,342,0.0,2.0,72,0.00,,CLR,0.00,VWS V14.01,2013-03-12 13:44:00,
2013-03-12 07:49:00,27.1,19.6,30.21,NNW,343,0.0,2.0,73,0.00,,CLR,0.00,VWS V14.01,2013-03-12 13:49:00,
2013-03-12 07:55:00,26.6,19.4,30.21,NNW,343,0.0,2.0,74,0.00,,CLR,0.00,VWS V14.01,2013-03-12 13:55:00,
2013-03-12 08:00:00,26.3,19.5,30.22,NNW,342,0.0,0.0,75,0.00,,CLR,0.00,VWS V14.01,2013-03-12 14:00:00,
2013-03-12 08:05:00,25.9,19.1,30.22,NNW,343,0.0,0.0,75,0.00,,CLR,0.00,VWS V14.01,2013-03-12 14:05:00,
2013-03-12 08:10:00,26.3,19.8,30.22,SSE,147,0.0,0.0,76,0.00,,CLR,0.00,VWS V14.01,2013-03-12 14:10:00,
2013-03-12 08:15:00,27.6,20.4,30.22,SSW,198,0.0,0.0,74,0.00,,CLR,0.00,VWS V14.01,2013-03-12 14:15:00,
2013-03-12 08:20:00,28.3,20.4,30.22,SSW,199,0.0,0.0,72,0.00,,CLR,0.00,VWS V14.01,2013-03-12 14:20:00,
2013-03-12 08:25:00,29.3,21.1,30.23,SSW,198,0.0,0.0,71,0.00,,CLR,0.00,VWS V14.01,2013-03-12 14:25:00,
2013-03-12 08:30:00,30.5,22.2,30.23,SSW,198,0.0,0.0,71,0.00,,CLR,0.00,VWS V14.01,2013-03-12 14:30:00,
2013-03-12 08:31:00,31.0,22.4,30.23,SSW,197,0.0,0.0,70,0.00,,CLR,0.00,VWS V14.01,2013-03-12 14:31:00,
2013-03-12 08:36:00,32.3,22.2,30.23,SE,146,0.0,0.0,66,0.00,,CLR,0.00,VWS V14.01,2013-03-12 14:36:00,
2013-03-12 08:41:00,32.7,21.5,30.23,North,357,0.0,0.0,63,0.00,,CLR,0.00,VWS V14.01,2013-03-12 14:41:00,
2013-03-12 08:46:00,32.7,21.5,30.23,North,357,0.0,0.0,63,0.00,,CLR,0.00,VWS V14.01,2013-03-12 14:46:00,
2013-03-12 08:53:00,33.9,21.9,30.23,North,356,0.0,0.0,61,0.00,,CLR,0.00,VWS V14.01,2013-03-12 14:53:00,
2013-03-12 08:58:00,34.3,22.3,30.23,NNW,335,0.0,0.0,61,0.00,,CLR,0.00,VWS V14.01,2013-03-12 14:58:00,
2013-03-12 09:00:00,34.4,22.4,30.23,NNW,336,0.0,0.0,61,0.00,,CLR,0.00,VWS V14.01,2013-03-12 15:00:00,
2013-03-12 09:03:00,34.5,22.1,30.23,North,9,0.0,0.0,60,0.00,,CLR,0.00,VWS V14.01,2013-03-12 15:03:00,
2013-03-12 09:08:00,34.9,22.4,30.24,NW,306,0.0,0.0,60,0.00,,CLR,0.00,VWS V14.01,2013-03-12 15:08:00,
2013-03-12 09:13:00,35.2,22.3,30.24,WNW,303,0.0,0.0,59,0.00,,CLR,0.00,VWS V14.01,2013-03-12 15:13:00,
2013-03-12 09:18:00,35.7,22.4,30.24,WNW,295,0.0,0.0,58,0.00,,CLR,0.00,VWS V14.01,2013-03-12 15:18:00,
2013-03-12 09:23:00,36.0,22.3,30.23,WNW,282,0.0,0.0,57,0.00,,CLR,0.00,VWS V14.01,2013-03-12 15:23:00,
2013-03-12 09:28:00,36.3,22.5,30.23,WSW,255,0.0,0.0,57,0.00,,CLR,0.00,VWS V14.01,2013-03-12 15:28:00,
2013-03-12 09:30:00,36.4,22.6,30.23,West,279,0.0,0.0,57,0.00,,CLR,0.00,VWS V14.01,2013-03-12 15:30:00,
2013-03-12 09:33:00,36.5,22.3,30.23,West,262,0.0,0.0,56,0.00,,CLR,0.00,VWS V14.01,2013-03-12 15:33:00,
2013-03-12 09:38:00,36.5,22.3,30.23,WNW,290,0.0,0.0,56,0.00,,CLR,0.00,VWS V14.01,2013-03-12 15:38:00,
2013-03-12 09:44:00,36.8,22.6,30.22,NW,314,0.0,0.0,56,0.00,,CLR,0.00,VWS V14.01,2013-03-12 15:44:00,
2013-03-12 09:49:00,37.2,23.0,30.22,North,357,0.0,3.0,56,0.00,,CLR,0.00,VWS V14.01,2013-03-12 15:49:00,
2013-03-12 09:54:00,37.6,22.5,30.22,NW,314,3.0,4.0,54,0.00,,CLR,0.00,VWS V14.01,2013-03-12 15:54:00,
2013-03-12 09:59:00,38.3,22.7,30.22,NNW,332,2.0,4.0,53,0.00,,CLR,0.00,VWS V14.01,2013-03-12 15:59:00,
2013-03-12 10:00:00,38.4,22.8,30.22,NNW,347,1.0,4.0,53,0.00,,CLR,0.00,VWS V14.01,2013-03-12 16:00:00,
2013-03-12 10:04:00,38.7,23.1,30.22,NNW,345,0.0,4.0,53,0.00,,CLR,0.00,VWS V14.01,2013-03-12 16:04:00,
2013-03-12 10:09:00,39.3,23.6,30.22,NW,320,2.0,4.0,53,0.00,,CLR,0.00,VWS V14.01,2013-03-12 16:09:00,
2013-03-12 10:14:00,39.4,23.2,30.23,NW,314,1.0,4.0,52,0.00,,CLR,0.00,VWS V14.01,2013-03-12 16:14:00,
2013-03-12 10:19:00,39.8,24.1,30.22,West,268,2.0,4.0,53,0.00,,CLR,0.00,VWS V14.01,2013-03-12 16:19:00,
2013-03-12 10:24:00,40.0,24.3,30.23,WNW,302,2.0,4.0,53,0.00,,CLR,0.00,VWS V14.01,2013-03-12 16:24:00,
2013-03-12 10:30:00,39.6,24.3,30.23,NNW,330,0.0,1.0,54,0.00,,CLR,0.00,VWS V14.01,2013-03-12 16:30:00,
2013-03-12 10:35:00,39.6,24.3,30.23,NNW,338,1.0,5.0,54,0.00,,CLR,0.00,VWS V14.01,2013-03-12 16:35:00,
2013-03-12 10:40:00,39.6,23.9,30.24,NNW,335,0.0,5.0,53,0.00,,CLR,0.00,VWS V14.01,2013-03-12 16:40:00,
2013-03-12 10:45:00,39.7,23.5,30.24,WNW,289,0.0,5.0,52,0.00,,CLR,0.00,VWS V14.01,2013-03-12 16:45:00,
2013-03-12 10:50:00,39.2,23.1,30.24,NW,309,1.0,5.0,52,0.00,,CLR,0.00,VWS V14.01,2013-03-12 16:50:00,
2013-03-12 10:55:00,39.5,23.8,30.24,NNW,329,0.0,5.0,53,0.00,,CLR,0.00,VWS V14.01,2013-03-12 16:55:00,
2013-03-12 11:00:00,40.4,24.2,30.24,WNW,297,0.0,0.0,52,0.00,,CLR,0.00,VWS V14.01,2013-03-12 17:00:00,
2013-03-12 11:05:00,40.7,23.0,30.24,West,273,0.0,3.0,49,0.00,,CLR,0.00,VWS V14.01,2013-03-12 17:05:00,
2013-03-12 11:10:00,40.8,22.6,30.24,West,280,0.0,5.0,48,0.00,,CLR,0.00,VWS V14.01,2013-03-12 17:10:00,
2013-03-12 11:15:00,41.2,22.5,30.24,WNW,295,3.0,5.0,47,0.00,,CLR,0.00,VWS V14.01,2013-03-12 17:15:00,
2013-03-12 11:21:00,41.4,22.7,30.24,WNW,300,1.0,5.0,47,0.00,,CLR,0.00,VWS V14.01,2013-03-12 17:21:00,
2013-03-12 11:26:00,42.2,23.4,30.24,West,271,5.0,7.0,47,0.00,,CLR,0.00,VWS V14.01,2013-03-12 17:26:00,
2013-03-12 11:30:00,42.3,23.0,30.24,WNW,288,2.0,7.0,46,0.00,,CLR,0.00,VWS V14.01,2013-03-12 17:30:00,
2013-03-12 11:31:00,42.3,23.0,30.24,SW,222,2.0,2.0,46,0.00,,CLR,0.00,VWS V14.01,2013-03-12 17:31:00,
2013-03-12 11:37:00,42.3,23.0,30.23,WNW,287,0.0,6.0,46,0.00,,CLR,0.00,VWS V14.01,2013-03-12 17:37:00,
2013-03-12 11:44:00,43.0,22.6,30.23,WNW,284,0.0,6.0,44,0.00,,CLR,0.00,VWS V14.01,2013-03-12 17:44:00,
2013-03-12 11:49:00,43.6,23.1,30.23,WNW,295,1.0,6.0,44,0.00,,CLR,0.00,VWS V14.01,2013-03-12 17:49:00,
2013-03-12 11:54:00,44.3,23.8,30.22,ESE,102,0.0,6.0,44,0.00,,CLR,0.00,VWS V14.01,2013-03-12 17:54:00,
2013-03-12 11:59:00,44.5,22.9,30.22,West,271,0.0,6.0,42,0.00,,CLR,0.00,VWS V14.01,2013-03-12 17:59:00,
2013-03-12 12:00:00,44.5,22.9,30.22,SW,226,0.0,6.0,42,0.00,,CLR,0.00,VWS V14.01,2013-03-12 18:00:00,
2013-03-12 12:04:00,44.7,22.5,30.23,NW,322,1.0,5.0,41,0.00,,CLR,0.00,VWS V14.01,2013-03-12 18:04:00,
2013-03-12 12:09:00,45.2,21.7,30.22,ENE,63,4.0,5.0,39,0.00,,CLR,0.00,VWS V14.01,2013-03-12 18:09:00,
2013-03-12 12:14:00,45.1,22.2,30.22,WNW,287,2.0,6.0,40,0.00,,CLR,0.00,VWS V14.01,2013-03-12 18:14:00,
2013-03-12 12:19:00,45.6,20.9,30.22,NNE,15,0.0,6.0,37,0.00,,CLR,0.00,VWS V14.01,2013-03-12 18:19:00,
2013-03-12 12:24:00,46.1,20.0,30.22,NNW,346,2.0,6.0,35,0.00,,CLR,0.00,VWS V14.01,2013-03-12 18:24:00,
2013-03-12 12:30:00,46.1,21.3,30.22,North,354,2.0,2.0,37,0.00,,CLR,0.00,VWS V14.01,2013-03-12 18:30:00,
2013-03-12 12:35:00,46.4,20.9,30.22,NNW,330,5.0,5.0,36,0.00,,CLR,0.00,VWS V14.01,2013-03-12 18:35:00,
2013-03-12 12:40:00,46.4,21.6,30.22,NNW,329,1.0,6.0,37,0.00,,CLR,0.00,VWS V14.01,2013-03-12 18:40:00,
2013-03-12 12:45:00,46.7,21.2,30.21,NNE,25,1.0,6.0,36,0.00,,CLR,0.00,VWS V14.01,2013-03-12 18:45:00,
2013-03-12 12:50:00,46.9,19.3,30.21,NNW,328,0.0,6.0,33,0.00,,CLR,0.00,VWS V14.01,2013-03-12 18:50:00,
2013-03-12 12:55:00,46.8,20.6,30.21,WNW,300,1.0,6.0,35,0.00,,CLR,0.00,VWS V14.01,2013-03-12 18:55:00,
2013-03-12 13:00:00,47.7,22.1,30.21,NW,316,2.0,2.0,36,0.00,,CLR,0.00,VWS V14.01,2013-03-12 19:00:00,
2013-03-12 13:05:00,47.7,20.7,30.20,North,6,0.0,7.0,34,0.00,,CLR,0.00,VWS V14.01,2013-03-12 19:05:00,
2013-03-12 13:10:00,48.0,21.7,30.20,NNW,344,0.0,8.0,35,0.00,,CLR,0.00,VWS V14.01,2013-03-12 19:10:00,
2013-03-12 13:16:00,48.5,20.7,30.20,NNW,330,3.0,8.0,33,0.00,,CLR,0.00,VWS V14.01,2013-03-12 19:16:00,
2013-03-12 13:21:00,48.5,20.0,30.20,NNW,331,4.0,9.0,32,0.00,,CLR,0.00,VWS V14.01,2013-03-12 19:21:00,
2013-03-12 13:26:00,49.2,22.0,30.20,NNE,24,1.0,9.0,34,0.00,,CLR,0.00,VWS V14.01,2013-03-12 19:26:00,
2013-03-12 13:30:00,49.3,20.0,30.20,NW,307,2.0,9.0,31,0.00,,CLR,0.00,VWS V14.01,2013-03-12 19:30:00,
2013-03-12 13:31:00,49.5,22.3,30.20,SE,132,1.0,2.0,34,0.00,,CLR,0.00,VWS V14.01,2013-03-12 19:31:00,
2013-03-12 13:36:00,49.7,21.8,30.20,NNE,23,4.0,6.0,33,0.00,,CLR,0.00,VWS V14.01,2013-03-12 19:36:00,
2013-03-12 13:41:00,49.9,21.2,30.20,West,278,0.0,6.0,32,0.00,,CLR,0.00,VWS V14.01,2013-03-12 19:41:00,
2013-03-12 13:47:00,49.9,21.2,30.19,WNW,289,3.0,9.0,32,0.00,,CLR,0.00,VWS V14.01,2013-03-12 19:47:00,
2013-03-12 13:53:00,49.0,21.9,30.18,West,276,2.0,9.0,34,0.00,,CLR,0.00,VWS V14.01,2013-03-12 19:53:00,
2013-03-12 13:58:00,49.6,21.0,30.19,WNW,302,2.0,9.0,32,0.00,,CLR,0.00,VWS V14.01,2013-03-12 19:58:00,
2013-03-12 14:00:00,49.9,22.0,30.18,WNW,297,1.0,9.0,33,0.00,,CLR,0.00,VWS V14.01,2013-03-12 20:00:00,
2013-03-12 14:03:00,50.9,21.4,30.18,NW,307,4.0,4.0,31,0.00,,CLR,0.00,VWS V14.01,2013-03-12 20:03:00,
2013-03-12 14:08:00,50.4,20.9,30.17,WSW,253,8.0,8.0,31,0.00,,CLR,0.00,VWS V14.01,2013-03-12 20:08:00,
2013-03-12 14:14:00,49.7,19.5,30.17,NNW,340,1.0,8.0,30,0.00,,CLR,0.00,VWS V14.01,2013-03-12 20:14:00,
2013-03-12 14:19:00,50.8,23.5,30.17,West,281,3.0,8.0,34,0.00,,CLR,0.00,VWS V14.01,2013-03-12 20:19:00,
2013-03-12 14:24:00,50.7,20.4,30.16,West,270,4.0,8.0,30,0.00,,CLR,0.00,VWS V14.01,2013-03-12 20:24:00,
2013-03-12 14:29:00,50.8,21.3,30.15,North,349,2.0,8.0,31,0.00,,CLR,0.00,VWS V14.01,2013-03-12 20:29:00,
2013-03-12 14:30:00,50.8,21.3,30.15,NW,323,2.0,8.0,31,0.00,,CLR,0.00,VWS V14.01,2013-03-12 20:30:00,
2013-03-12 14:34:00,50.4,20.9,30.15,ESE,105,1.0,6.0,31,0.00,,CLR,0.00,VWS V14.01,2013-03-12 20:34:00,
2013-03-12 14:39:00,50.6,20.3,30.14,West,281,0.0,6.0,30,0.00,,CLR,0.00,VWS V14.01,2013-03-12 20:39:00,
2013-03-12 14:44:00,50.6,20.3,30.14,SE,125,1.0,6.0,30,0.00,,CLR,0.00,VWS V14.01,2013-03-12 20:44:00,
2013-03-12 14:50:00,51.4,21.0,30.13,SSE,165,1.0,6.0,30,0.00,,CLR,0.00,VWS V14.01,2013-03-12 20:50:00,
2013-03-12 14:55:00,51.8,21.4,30.13,WSW,257,4.0,7.0,30,0.00,,CLR,0.00,VWS V14.01,2013-03-12 20:55:00,
2013-03-12 15:00:00,51.7,20.5,30.13,SW,235,1.0,4.0,29,0.00,,CLR,0.00,VWS V14.01,2013-03-12 21:00:00,
2013-03-12 15:05:00,52.3,21.8,30.13,WNW,291,3.0,5.0,30,0.00,,CLR,0.00,VWS V14.01,2013-03-12 21:05:00,
2013-03-12 15:10:00,53.0,22.4,30.13,NNE,27,1.0,5.0,30,0.00,,CLR,0.00,VWS V14.01,2013-03-12 21:10:00,
2013-03-12 15:15:00,52.6,20.4,30.14,NW,307,1.0,7.0,28,0.00,,CLR,0.00,VWS V14.01,2013-03-12 21:15:00,
2013-03-12 15:20:00,52.7,20.5,30.13,West,270,0.0,7.0,28,0.00,,CLR,0.00,VWS V14.01,2013-03-12 21:20:00,
2013-03-12 15:25:00,53.1,20.9,30.14,SW,231,6.0,8.0,28,0.00,,CLR,0.00,VWS V14.01,2013-03-12 21:25:00,
2013-03-12 15:30:00,53.4,22.8,30.14,WNW,298,4.0,6.0,30,0.00,,CLR,0.00,VWS V14.01,2013-03-12 21:30:00,
2013-03-12 15:35:00,52.8,19.8,30.13,West,277,3.0,9.0,27,0.00,,CLR,0.00,VWS V14.01,2013-03-12 21:35:00,
2013-03-12 15:40:00,53.4,21.1,30.14,NW,304,0.0,9.0,28,0.00,,CLR,0.00,VWS V14.01,2013-03-12 21:40:00,
2013-03-12 15:45:00,53.3,18.4,30.14,NW,307,0.0,9.0,25,0.00,,CLR,0.00,VWS V14.01,2013-03-12 21:45:00,
2013-03-12 15:50:00,53.6,22.1,30.14,West,277,4.0,14.0,29,0.00,,CLR,0.00,VWS V14.01,2013-03-12 21:50:00,
2013-03-12 15:55:00,53.5,20.4,30.14,WNW,283,1.0,14.0,27,0.00,,CLR,0.00,VWS V14.01,2013-03-12 21:55:00,
2013-03-12 16:05:00,53.8,20.6,30.14,NNW,347,1.0,4.0,27,0.00,,CLR,0.00,VWS V14.01,2013-03-12 22:05:00,
2013-03-12 16:10:00,53.6,20.5,30.14,West,270,7.0,9.0,27,0.00,,CLR,0.00,VWS V14.01,2013-03-12 22:10:00,
2013-03-12 16:15:00,53.4,20.3,30.14,WNW,297,6.0,9.0,27,0.00,,CLR,0.00,VWS V14.01,2013-03-12 22:15:00,
2013-03-12 16:20:00,53.4,19.4,30.14,NW,325,2.0,9.0,26,0.00,,CLR,0.00,VWS V14.01,2013-03-12 22:20:00,
2013-03-12 16:25:00,54.0,20.8,30.14,NW,307,7.0,9.0,27,0.00,,CLR,0.00,VWS V14.01,2013-03-12 22:25:00,
2013-03-12 16:30:00,54.2,20.1,30.14,West,270,9.0,9.0,26,0.00,,CLR,0.00,VWS V14.01,2013-03-12 22:30:00,
2013-03-12 16:35:00,54.1,20.9,30.14,SW,224,9.0,12.0,27,0.00,,CLR,0.00,VWS V14.01,2013-03-12 22:35:00,
2013-03-12 16:40:00,54.3,19.2,30.14,West,266,5.0,12.0,25,0.00,,CLR,0.00,VWS V14.01,2013-03-12 22:40:00,
2013-03-12 16:45:00,54.4,20.2,30.14,WNW,298,6.0,13.0,26,0.00,,CLR,0.00,VWS V14.01,2013-03-12 22:45:00,
2013-03-12 16:50:00,54.5,21.2,30.14,WSW,257,6.0,13.0,27,0.00,,CLR,0.00,VWS V14.01,2013-03-12 22:50:00,
2013-03-12 16:55:00,54.6,20.4,30.14,West,273,7.0,13.0,26,0.00,,CLR,0.00,VWS V14.01,2013-03-12 22:55:00,
2013-03-12 17:00:00,54.3,18.3,30.14,West,260,6.0,13.0,24,0.00,,OVC120,0.00,VWS V14.01,2013-03-12 23:00:00,
2013-03-12 17:01:00,54.2,18.2,30.14,SW,225,9.0,10.0,24,0.00,,CLR,0.00,VWS V14.01,2013-03-12 23:01:00,
2013-03-12 17:06:00,54.7,18.6,30.14,West,270,4.0,10.0,24,0.00,,CLR,0.00,VWS V14.01,2013-03-12 23:06:00,
2013-03-12 17:11:00,54.9,19.8,30.13,West,281,4.0,10.0,25,0.00,,CLR,0.00,VWS V14.01,2013-03-12 23:11:00,
2013-03-12 17:16:00,54.7,17.6,30.13,West,262,5.0,11.0,23,0.00,,CLR,0.00,VWS V14.01,2013-03-12 23:16:00,
2013-03-12 17:21:00,54.5,19.4,30.13,SW,231,3.0,11.0,25,0.00,,CLR,0.00,VWS V14.01,2013-03-12 23:21:00,
2013-03-12 17:26:00,54.3,19.2,30.13,WNW,285,4.0,11.0,25,0.00,,CLR,0.00,VWS V14.01,2013-03-12 23:26:00,
2013-03-12 17:30:00,54.5,20.3,30.13,West,274,5.0,11.0,26,0.00,,OVC120,0.00,VWS V14.01,2013-03-12 23:30:00,
2013-03-12 17:31:00,54.6,20.4,30.13,WNW,283,4.0,8.0,26,0.00,,CLR,0.00,VWS V14.01,2013-03-12 23:31:00,
2013-03-12 17:36:00,54.5,20.3,30.13,WNW,284,1.0,9.0,26,0.00,,CLR,0.00,VWS V14.01,2013-03-12 23:36:00,
2013-03-12 17:41:00,54.5,20.3,30.13,SW,229,3.0,10.0,26,0.00,,CLR,0.00,VWS V14.01,2013-03-12 23:41:00,
2013-03-12 17:46:00,54.4,20.2,30.13,WSW,246,7.0,11.0,26,0.00,,CLR,0.00,VWS V14.01,2013-03-12 23:46:00,
2013-03-12 17:52:00,54.5,19.4,30.13,SSW,211,2.0,11.0,25,0.00,,CLR,0.00,VWS V14.01,2013-03-12 23:52:00,
2013-03-12 17:57:00,54.5,22.1,30.13,WSW,243,7.0,12.0,28,0.00,,CLR,0.00,VWS V14.01,2013-03-12 23:57:00,
2013-03-12 18:00:00,54.2,21.0,30.13,West,270,4.0,12.0,27,0.00,,OVC120,0.00,VWS V14.01,2013-03-13 00:00:00,
2013-03-12 18:02:00,53.8,20.6,30.13,West,264,2.0,6.0,27,0.00,,CLR,0.00,VWS V14.01,2013-03-13 00:02:00,
2013-03-12 18:07:00,53.4,20.3,30.13,West,262,2.0,6.0,27,0.00,,CLR,0.00,VWS V14.01,2013-03-13 00:07:00,
2013-03-12 18:12:00,52.6,19.6,30.13,SSW,210,4.0,9.0,27,0.00,,CLR,0.00,VWS V14.01,2013-03-13 00:12:00,
2013-03-12 18:17:00,52.1,21.6,30.13,West,263,2.0,9.0,30,0.00,,CLR,0.00,VWS V14.01,2013-03-13 00:17:00,
2013-03-12 18:22:00,51.8,20.6,30.13,West,259,3.0,9.0,29,0.00,,CLR,0.00,VWS V14.01,2013-03-13 00:22:00,
2013-03-12 18:28:00,51.8,22.1,30.13,SW,235,1.0,9.0,31,0.00,,CLR,0.00,VWS V14.01,2013-03-13 00:28:00,
2013-03-12 18:30:00,51.9,21.5,30.13,SW,229,2.0,9.0,30,0.00,,OVC120,0.00,VWS V14.01,2013-03-13 00:30:00,
2013-03-12 18:33:00,51.9,21.5,30.13,West,260,3.0,7.0,30,0.00,,CLR,0.00,VWS V14.01,2013-03-13 00:33:00,
2013-03-12 18:38:00,51.8,22.1,30.13,West,262,2.0,7.0,31,0.00,,CLR,0.00,VWS V14.01,2013-03-13 00:38:00,
2013-03-12 18:43:00,51.7,22.1,30.13,SW,228,2.0,7.0,31,0.00,,CLR,0.00,VWS V14.01,2013-03-13 00:43:00,
2013-03-12 18:48:00,51.2,22.4,30.13,SW,226,1.0,7.0,32,0.00,,CLR,0.00,VWS V14.01,2013-03-13 00:48:00,
2013-03-12 18:53:00,51.5,21.9,30.13,SW,215,0.0,7.0,31,0.00,,CLR,0.00,VWS V14.01,2013-03-13 00:53:00,
2013-03-12 18:58:00,52.0,23.1,30.13,SW,215,0.0,7.0,32,0.00,,CLR,0.00,VWS V14.01,2013-03-13 00:58:00,
2013-03-12 19:00:00,52.0,22.3,30.13,SW,216,0.0,7.0,31,0.00,,OVC120,0.00,VWS V14.01,2013-03-13 01:00:00,
2013-03-12 19:03:00,52.0,23.1,30.14,SSE,159,0.0,1.0,32,0.00,,CLR,0.00,VWS V14.01,2013-03-13 01:03:00,
2013-03-12 19:08:00,50.0,22.8,30.14,ESE,117,1.0,2.0,34,0.00,,CLR,0.00,VWS V14.01,2013-03-13 01:08:00,
2013-03-12 19:13:00,48.0,23.0,30.14,SE,127,2.0,2.0,37,0.00,,CLR,0.00,VWS V14.01,2013-03-13 01:13:00,
2013-03-12 19:19:00,46.4,22.8,30.14,SE,129,3.0,4.0,39,0.00,,CLR,0.00,VWS V14.01,2013-03-13 01:19:00,
2013-03-12 19:24:00,45.7,22.2,30.14,SE,141,2.0,4.0,39,0.00,,CLR,0.00,VWS V14.01,2013-03-13 01:24:00,
2013-03-12 19:29:00,46.0,21.8,30.14,SSE,154,0.0,4.0,38,0.00,,CLR,0.00,VWS V14.01,2013-03-13 01:29:00,
2013-03-12 19:30:00,46.0,21.8,30.15,South,177,2.0,4.0,38,0.00,,OVC120,0.00,VWS V14.01,2013-03-13 01:30:00,
2013-03-12 19:34:00,46.3,20.8,30.15,South,190,3.0,4.0,36,0.00,,CLR,0.00,VWS V14.01,2013-03-13 01:34:00,
2013-03-12 19:39:00,46.7,20.5,30.15,SSE,153,5.0,6.0,35,0.00,,CLR,0.00,VWS V14.01,2013-03-13 01:39:00,
2013-03-12 19:44:00,46.9,20.7,30.15,SE,146,4.0,6.0,35,0.00,,CLR,0.00,VWS V14.01,2013-03-13 01:44:00,
2013-03-12 19:49:00,46.8,21.3,30.15,South,173,2.0,6.0,36,0.00,,CLR,0.00,VWS V14.01,2013-03-13 01:49:00,
2013-03-12 19:55:00,46.7,21.2,30.16,SSE,151,2.0,6.0,36,0.00,,CLR,0.00,VWS V14.01,2013-03-13 01:55:00,
2013-03-12 20:00:00,46.5,21.0,30.16,SE,146,3.0,4.0,36,0.00,,CLR,0.00,VWS V14.01,2013-03-13 02:00:00,
2013-03-12 20:05:00,46.5,21.0,30.16,SSE,155,5.0,6.0,36,0.00,,CLR,0.00,VWS V14.01,2013-03-13 02:05:00,
2013-03-12 20:10:00,46.8,21.3,30.16,South,176,2.0,6.0,36,0.00,,CLR,0.00,VWS V14.01,2013-03-13 02:10:00,
2013-03-12 20:15:00,47.0,21.5,30.16,SE,131,6.0,6.0,36,0.00,,CLR,0.00,VWS V14.01,2013-03-13 02:15:00,
2013-03-12 20:20:00,46.7,21.2,30.16,SE,141,3.0,6.0,36,0.00,,CLR,0.00,VWS V14.01,2013-03-13 02:20:00,
2013-03-12 20:25:00,46.5,21.0,30.16,SSE,150,4.0,8.0,36,0.00,,CLR,0.00,VWS V14.01,2013-03-13 02:25:00,
2013-03-12 20:30:00,46.7,21.2,30.16,SE,146,4.0,5.0,36,0.00,,CLR,0.00,VWS V14.01,2013-03-13 02:30:00,
2013-03-12 20:35:00,46.6,21.1,30.17,SSW,201,4.0,8.0,36,0.00,,CLR,0.00,VWS V14.01,2013-03-13 02:35:00,
2013-03-12 20:40:00,46.5,21.0,30.17,SSE,151,5.0,8.0,36,0.00,,CLR,0.00,VWS V14.01,2013-03-13 02:40:00,
2013-03-12 20:45:00,46.5,21.6,30.17,SSW,204,2.0,8.0,37,0.00,,CLR,0.00,VWS V14.01,2013-03-13 02:45:00,
2013-03-12 20:50:00,47.1,20.9,30.17,SW,214,4.0,10.0,35,0.00,,CLR,0.00,VWS V14.01,2013-03-13 02:50:00,
2013-03-12 20:56:00,47.6,21.3,30.17,SSE,163,4.0,10.0,35,0.00,,CLR,0.00,VWS V14.01,2013-03-13 02:56:00,
2013-03-12 21:00:00,47.4,21.1,30.17,SSW,201,5.0,10.0,35,0.00,,OVC120,0.00,VWS V14.01,2013-03-13 03:00:00,
2013-03-12 21:01:00,47.4,21.1,30.17,SW,215,8.0,8.0,35,0.00,,CLR,0.00,VWS V14.01,2013-03-13 03:01:00,
2013-03-12 21:06:00,47.4,21.1,30.18,West,266,2.0,8.0,35,0.00,,CLR,0.00,VWS V14.01,2013-03-13 03:06:00,
2013-03-12 21:11:00,45.8,23.5,30.18,ENE,67,2.0,8.0,41,0.00,,CLR,0.00,VWS V14.01,2013-03-13 03:11:00,
2013-03-12 21:16:00,43.3,23.4,30.18,ENE,77,2.0,8.0,45,0.00,,CLR,0.00,VWS V14.01,2013-03-13 03:16:00,
2013-03-12 21:21:00,42.3,23.0,30.19,East,92,4.0,8.0,46,0.00,,CLR,0.00,VWS V14.01,2013-03-13 03:21:00,
2013-03-12 21:26:00,41.7,23.0,30.19,East,99,4.0,8.0,47,0.00,,CLR,0.00,VWS V14.01,2013-03-13 03:26:00,
2013-03-12 21:30:00,41.3,22.6,30.19,East,100,3.0,8.0,47,0.00,,OVC120,0.00,VWS V14.01,2013-03-13 03:30:00,
2013-03-12 21:31:00,41.2,22.0,30.19,SE,127,1.0,4.0,46,0.00,,CLR,0.00,VWS V14.01,2013-03-13 03:31:00,
2013-03-12 21:36:00,41.5,22.3,30.19,SE,129,1.0,4.0,46,0.00,,CLR,0.00,VWS V14.01,2013-03-13 03:36:00,
2013-03-12 21:43:00,42.0,22.2,30.20,SSE,158,2.0,4.0,45,0.00,,CLR,0.00,VWS V14.01,2013-03-13 03:43:00,
2013-03-12 21:48:00,42.3,22.0,30.20,SW,233,1.0,4.0,44,0.00,,CLR,0.00,VWS V14.01,2013-03-13 03:48:00,
2013-03-12 21:53:00,42.6,22.2,30.20,South,186,2.0,4.0,44,0.00,,CLR,0.00,VWS V14.01,2013-03-13 03:53:00,
2013-03-12 21:58:00,42.6,22.2,30.21,SW,214,4.0,5.0,44,0.00,,CLR,0.00,VWS V14.01,2013-03-13 03:58:00,
2013-03-12 22:00:00,42.6,22.2,30.21,SSE,166,1.0,3.0,44,0.00,,CLR,0.00,VWS V14.01,2013-03-13 04:00:00,
2013-03-12 22:01:00,42.6,22.2,30.21,South,173,3.0,4.0,44,0.00,,CLR,0.00,VWS V14.01,2013-03-13 04:01:00,
2013-03-12 22:02:00,42.7,22.3,30.21,SSW,203,3.0,5.0,44,0.00,,CLR,0.00,VWS V14.01,2013-03-13 04:02:00,
2013-03-12 22:03:00,42.7,22.3,30.21,South,174,3.0,6.0,44,0.00,,CLR,0.00,VWS V14.01,2013-03-13 04:03:00,
2013-03-12 22:08:00,43.2,21.7,30.22,SW,229,6.0,6.0,42,0.00,,CLR,0.00,VWS V14.01,2013-03-13 04:08:00,
2013-03-12 22:13:00,43.7,21.6,30.22,SSW,211,8.0,8.0,41,0.00,,CLR,0.00,VWS V14.01,2013-03-13 04:13:00,
2013-03-12 22:18:00,44.0,21.8,30.22,SSW,207,2.0,10.0,41,0.00,,CLR,0.00,VWS V14.01,2013-03-13 04:18:00,
2013-03-12 22:24:00,43.9,21.7,30.23,SSW,212,3.0,10.0,41,0.00,,CLR,0.00,VWS V14.01,2013-03-13 04:24:00,
2013-03-12 22:29:00,44.0,21.2,30.23,SSW,206,3.0,10.0,40,0.00,,CLR,0.00,VWS V14.01,2013-03-13 04:29:00,
2013-03-12 22:30:00,44.0,21.8,30.23,SW,218,4.0,10.0,41,0.00,,OVC120,0.00,VWS V14.01,2013-03-13 04:30:00,
2013-03-12 22:34:00,43.8,21.6,30.23,SW,228,3.0,5.0,41,0.00,,CLR,0.00,VWS V14.01,2013-03-13 04:34:00,
2013-03-12 22:39:00,43.5,21.4,30.23,WSW,256,3.0,5.0,41,0.00,,CLR,0.00,VWS V14.01,2013-03-13 04:39:00,
2013-03-12 22:44:00,43.5,21.4,30.23,SSW,201,1.0,5.0,41,0.00,,CLR,0.00,VWS V14.01,2013-03-13 04:44:00,
2013-03-12 22:49:00,42.9,21.4,30.24,SW,222,1.0,5.0,42,0.00,,CLR,0.00,VWS V14.01,2013-03-13 04:49:00,
2013-03-12 22:54:00,42.6,21.1,30.23,SSE,167,3.0,5.0,42,0.00,,CLR,0.00,VWS V14.01,2013-03-13 04:54:00,
2013-03-12 22:59:00,42.7,21.8,30.24,South,172,2.0,6.0,43,0.00,,CLR,0.00,VWS V14.01,2013-03-13 04:59:00,
2013-03-12 23:00:00,42.7,21.8,30.24,SSW,195,3.0,6.0,43,0.00,,OVC120,0.00,VWS V14.01,2013-03-13 05:00:00,
2013-03-12 23:04:00,42.7,21.2,30.23,South,183,4.0,5.0,42,0.00,,CLR,0.00,VWS V14.01,2013-03-13 05:04:00,
2013-03-12 23:09:00,43.1,21.6,30.23,SW,221,3.0,6.0,42,0.00,,CLR,0.00,VWS V14.01,2013-03-13 05:09:00,
2013-03-12 23:14:00,43.4,21.3,30.23,SSW,203,3.0,7.0,41,0.00,,CLR,0.00,VWS V14.01,2013-03-13 05:14:00,
2013-03-12 23:19:00,43.5,21.4,30.23,South,182,3.0,7.0,41,0.00,,CLR,0.00,VWS V14.01,2013-03-13 05:19:00,
2013-03-12 23:24:00,43.4,21.3,30.23,SW,219,2.0,7.0,41,0.00,,CLR,0.00,VWS V14.01,2013-03-13 05:24:00,
2013-03-12 23:29:00,43.0,21.5,30.23,NW,326,0.0,0.0,42,0.00,,CLR,0.00,VWS V14.01,2013-03-13 05:29:00,
2013-03-12 23:30:00,43.0,21.5,30.23,NW,326,0.0,7.0,42,0.00,,OVC120,0.00,VWS V14.01,2013-03-13 05:30:00,
2013-03-12 23:34:00,42.2,21.3,30.23,NNW,328,0.0,1.0,43,0.00,,CLR,0.00,VWS V14.01,2013-03-13 05:34:00,
2013-03-12 23:40:00,40.9,21.2,30.23,South,187,0.0,1.0,45,0.00,,CLR,0.00,VWS V14.01,2013-03-13 05:40:00,
2013-03-12 23:45:00,40.1,21.5,30.23,SSE,150,0.0,1.0,47,0.00,,CLR,0.00,VWS V14.01,2013-03-13 05:45:00,
2013-03-12 23:50:00,39.3,21.8,30.23,NE,47,0.0,2.0,49,0.00,,CLR,0.00,VWS V14.01,2013-03-13 05:50:00,
2013-03-12 23:55:00,38.7,21.2,30.23,East,82,2.0,2.0,49,0.00,,CLR,0.00,VWS V14.01,2013-03-13 05:55:00,